Time;durP1;ratioP1;P1;durP2;ratioP2;P2;SDS_P1;SDS_P2;PMS_P1;PMS_P2;Temp;Humidity;BMP_temperature;BMP_pressure;BME280_temperature;BME280_humidity;BME280_pressure;Samples;Min_cycle;Max_cycle;Signal;HPM_P1;HPM_P2
2024/03/11 00:02:04;;;;;;;49.80;38.58;;;7.50;99.90;;;;;;7371675;19;20043;-66
2024/03/11 00:04:31;;;;;;;51.35;38.17;;;7.40;99.90;;;;;;7370406;19;20045;-66
2024/03/11 00:06:59;;;;;;;48.35;37.17;;;7.50;99.90;;;;;;7369704;19;20082;-66
2024/03/11 00:09:28;;;;;;;49.55;37.78;;;7.40;99.90;;;;;;7370465;19;20022;-66
2024/03/11 00:11:55;;;;;;;46.42;37.42;;;7.50;99.90;;;;;;7368743;19;21618;-66
2024/03/11 00:14:26;;;;;;;48.20;36.65;;;7.40;99.90;;;;;;7372183;19;20363;-65
2024/03/11 00:16:53;;;;;;;50.10;38.30;;;7.40;99.90;;;;;;7370458;19;20021;-65
2024/03/11 00:19:19;;;;;;;55.88;41.10;;;7.40;99.90;;;;;;7369608;19;20054;-65
2024/03/11 00:21:45;;;;;;;50.03;37.80;;;7.40;99.90;;;;;;7366894;19;20018;-66
2024/03/11 00:24:12;;;;;;;53.80;37.42;;;7.40;99.90;;;;;;7372904;19;20014;-65
2024/03/11 00:26:38;;;;;;;50.28;37.63;;;7.40;99.90;;;;;;7371709;19;20018;-65
2024/03/11 00:29:04;;;;;;;50.70;39.38;;;7.30;99.90;;;;;;7367213;19;20022;-65
2024/03/11 00:31:32;;;;;;;52.30;40.50;;;7.30;99.90;;;;;;7374864;19;20053;-66
2024/03/11 00:33:58;;;;;;;52.33;40.42;;;7.30;99.90;;;;;;7371363;19;20059;-66
2024/03/11 00:36:25;;;;;;;50.15;37.67;;;7.30;99.90;;;;;;7369435;19;20014;-66
2024/03/11 00:38:52;;;;;;;51.30;39.22;;;7.20;99.90;;;;;;7369393;19;20018;-65
2024/03/11 00:41:18;;;;;;;49.47;38.97;;;7.20;99.90;;;;;;7375426;19;20022;-66
2024/03/11 00:43:45;;;;;;;55.80;40.67;;;7.20;99.90;;;;;;7372193;19;20019;-65
2024/03/11 00:46:12;;;;;;;50.15;38.85;;;7.10;99.90;;;;;;7370126;19;21828;-65
2024/03/11 00:48:38;;;;;;;54.10;41.95;;;7.10;99.90;;;;;;7369817;19;20057;-65
2024/03/11 00:51:04;;;;;;;53.50;38.83;;;7.00;99.90;;;;;;7371626;19;20090;-66
2024/03/11 00:53:31;;;;;;;53.70;38.42;;;7.00;99.90;;;;;;7366859;19;20029;-67
2024/03/11 00:55:57;;;;;;;56.10;40.17;;;7.00;99.90;;;;;;7366989;19;20027;-66
2024/03/11 00:58:24;;;;;;;52.95;39.75;;;6.90;99.90;;;;;;7369787;19;20102;-65
2024/03/11 01:00:50;;;;;;;52.05;39.15;;;6.90;99.90;;;;;;7364216;19;20908;-65
2024/03/11 01:03:17;;;;;;;49.75;37.47;;;6.90;99.90;;;;;;7363035;19;20014;-66
2024/03/11 01:05:44;;;;;;;51.38;37.72;;;6.90;99.90;;;;;;7370456;19;20026;-62
2024/03/11 01:08:11;;;;;;;51.55;38.30;;;6.80;99.90;;;;;;7368098;19;20025;-65
2024/03/11 01:10:37;;;;;;;51.53;36.85;;;6.80;99.90;;;;;;7370239;19;20502;-65
2024/03/11 01:13:03;;;;;;;54.17;39.40;;;6.80;99.90;;;;;;7368372;19;21441;-62
2024/03/11 01:15:32;;;;;;;55.00;39.90;;;6.80;99.90;;;;;;7360011;19;20898;-65
2024/03/11 01:17:59;;;;;;;52.50;38.90;;;6.70;99.90;;;;;;7368420;19;20024;-66
2024/03/11 01:20:25;;;;;;;49.83;37.63;;;6.70;99.90;;;;;;7368638;19;20653;-65
2024/03/11 01:22:52;;;;;;;51.42;37.10;;;6.70;99.90;;;;;;7367648;19;20026;-65
2024/03/11 01:25:20;;;;;;;52.10;36.83;;;6.70;99.90;;;;;;7368177;19;20777;-65
2024/03/11 01:27:46;;;;;;;50.53;37.15;;;6.70;99.90;;;;;;7366128;19;20022;-65
2024/03/11 01:30:14;;;;;;;53.15;38.28;;;6.70;99.90;;;;;;7368839;19;20546;-66
2024/03/11 01:32:44;;;;;;;49.90;37.55;;;6.70;99.90;;;;;;7371671;19;20019;-66
2024/03/11 01:35:11;;;;;;;53.08;37.50;;;6.70;99.90;;;;;;7368798;19;20475;-65
2024/03/11 01:37:37;;;;;;;55.15;38.72;;;6.70;99.90;;;;;;7364222;19;20014;-66
2024/03/11 01:40:09;;;;;;;47.25;37.13;;;6.70;99.90;;;;;;7367118;19;20048;-65
2024/03/11 01:42:36;;;;;;;49.78;37.13;;;6.70;99.90;;;;;;7373122;19;20894;-65
2024/03/11 01:45:05;;;;;;;48.70;35.83;;;6.70;99.90;;;;;;7366554;19;20493;-65
2024/03/11 01:47:32;;;;;;;51.47;36.22;;;6.70;99.90;;;;;;7369038;19;20383;-65
2024/03/11 01:50:01;;;;;;;50.90;36.53;;;6.70;99.90;;;;;;7366267;19;20052;-65
2024/03/11 01:52:33;;;;;;;48.35;36.08;;;6.70;99.90;;;;;;7370098;19;20029;-65
2024/03/11 01:55:05;;;;;;;47.22;34.78;;;6.70;99.90;;;;;;7370063;19;20023;-62
2024/03/11 01:57:35;;;;;;;49.77;35.80;;;6.70;99.90;;;;;;7364283;19;20019;-62
2024/03/11 02:00:08;;;;;;;50.42;36.28;;;6.70;99.90;;;;;;7366190;19;20022;-62
2024/03/11 02:02:38;;;;;;;50.00;35.35;;;6.70;99.90;;;;;;7366479;19;20019;-62
2024/03/11 02:05:09;;;;;;;47.30;35.30;;;6.70;99.90;;;;;;7369194;19;20030;-62
2024/03/11 02:07:39;;;;;;;49.05;35.42;;;6.80;99.90;;;;;;7365446;19;20045;-62
2024/03/11 02:10:13;;;;;;;50.45;36.00;;;6.80;99.90;;;;;;7364939;19;20025;-66
2024/03/11 02:12:45;;;;;;;47.55;34.28;;;6.80;99.90;;;;;;7363296;19;20011;-66
2024/03/11 02:15:11;;;;;;;45.80;34.72;;;6.80;99.90;;;;;;7369870;19;20019;-65
2024/03/11 02:17:39;;;;;;;49.03;34.50;;;6.80;99.90;;;;;;7363029;19;20018;-62
2024/03/11 02:20:16;;;;;;;51.72;35.58;;;6.80;99.90;;;;;;7366167;19;20499;-62
2024/03/11 02:22:52;;;;;;;44.80;33.00;;;6.90;99.90;;;;;;7363339;19;20098;-66
2024/03/11 02:25:20;;;;;;;45.10;33.22;;;6.90;99.90;;;;;;7369381;19;20029;-65
2024/03/11 02:27:48;;;;;;;46.08;34.08;;;6.90;99.90;;;;;;7364253;19;20570;-66
2024/03/11 02:30:16;;;;;;;47.00;35.50;;;6.90;99.90;;;;;;7370390;19;20022;-65
2024/03/11 02:32:44;;;;;;;46.10;32.28;;;6.90;99.90;;;;;;7369733;19;20025;-66
2024/03/11 02:35:10;;;;;;;51.28;32.95;;;6.90;99.90;;;;;;7366413;19;20018;-62
2024/03/11 02:37:38;;;;;;;46.03;34.47;;;6.90;99.90;;;;;;7372816;19;20097;-62
2024/03/11 02:40:09;;;;;;;42.08;31.25;;;6.90;99.90;;;;;;7364658;19;20026;-62
2024/03/11 02:42:36;;;;;;;42.50;32.47;;;6.90;99.90;;;;;;7367207;19;20491;-65
2024/03/11 02:45:07;;;;;;;49.22;33.45;;;6.90;99.90;;;;;;7366649;19;20014;-63
2024/03/11 02:47:37;;;;;;;48.25;35.03;;;7.00;99.90;;;;;;7366782;19;20023;-63
2024/03/11 02:50:07;;;;;;;44.58;31.75;;;7.00;99.90;;;;;;7365109;19;20053;-66
2024/03/11 02:52:36;;;;;;;42.00;32.05;;;7.00;99.90;;;;;;7367552;19;20019;-63
2024/03/11 02:55:03;;;;;;;45.10;32.40;;;7.00;99.90;;;;;;7365321;19;20019;-66
2024/03/11 02:57:32;;;;;;;45.25;32.85;;;7.00;99.90;;;;;;7369459;19;20026;-65
2024/03/11 02:59:59;;;;;;;42.70;31.65;;;7.00;99.90;;;;;;7365406;19;20911;-63
2024/03/11 03:02:26;;;;;;;42.63;30.58;;;7.00;99.90;;;;;;7368743;19;20015;-63
2024/03/11 03:04:55;;;;;;;45.17;31.33;;;7.00;99.90;;;;;;7363370;19;20019;-63
2024/03/11 03:07:24;;;;;;;40.83;30.50;;;7.00;99.90;;;;;;7369856;19;20038;-66
2024/03/11 03:09:51;;;;;;;43.22;32.58;;;7.00;99.90;;;;;;7362015;19;20572;-66
2024/03/11 03:12:18;;;;;;;45.60;33.08;;;7.00;99.90;;;;;;7370943;19;20077;-66
2024/03/11 03:14:44;;;;;;;41.42;30.98;;;7.00;99.90;;;;;;7370179;19;20022;-66
2024/03/11 03:17:10;;;;;;;45.45;31.05;;;7.00;99.90;;;;;;7375304;19;20471;-65
2024/03/11 03:19:37;;;;;;;41.42;31.00;;;7.00;99.90;;;;;;7375014;19;20011;-65
2024/03/11 03:22:03;;;;;;;42.15;30.25;;;7.00;99.90;;;;;;7372456;19;20387;-65
2024/03/11 03:24:29;;;;;;;45.22;32.10;;;7.00;99.90;;;;;;7376250;19;20047;-65
2024/03/11 03:26:56;;;;;;;43.95;31.35;;;7.00;99.90;;;;;;7371607;19;20761;-62
2024/03/11 03:29:24;;;;;;;40.65;27.13;;;7.00;99.90;;;;;;7370476;19;20391;-62
2024/03/11 03:31:51;;;;;;;43.70;33.28;;;7.00;99.90;;;;;;7372229;19;20117;-66
2024/03/11 03:34:17;;;;;;;43.63;32.25;;;7.00;99.90;;;;;;7370466;19;20010;-66
2024/03/11 03:36:45;;;;;;;40.00;29.65;;;7.10;99.90;;;;;;7370155;19;20044;-63
2024/03/11 03:39:11;;;;;;;43.83;30.52;;;7.10;99.90;;;;;;7364868;19;20018;-63
2024/03/11 03:41:37;;;;;;;41.88;30.98;;;7.10;99.90;;;;;;7365891;19;20018;-66
2024/03/11 03:44:04;;;;;;;42.00;31.42;;;7.10;99.90;;;;;;7375389;19;20026;-66
2024/03/11 03:46:31;;;;;;;40.60;31.10;;;7.00;99.90;;;;;;7370038;19;20111;-65
2024/03/11 03:48:58;;;;;;;41.20;29.75;;;7.00;99.90;;;;;;7373426;19;20011;-63
2024/03/11 03:51:25;;;;;;;41.25;30.17;;;7.10;99.90;;;;;;7372506;19;20022;-63
2024/03/11 03:53:51;;;;;;;38.95;29.00;;;7.10;99.90;;;;;;7373725;19;20027;-63
2024/03/11 03:56:17;;;;;;;42.85;30.92;;;7.10;99.90;;;;;;7372201;19;20034;-65
2024/03/11 03:58:44;;;;;;;39.78;29.42;;;7.10;99.90;;;;;;7368584;19;20037;-63
2024/03/11 04:01:10;;;;;;;41.45;30.23;;;7.10;99.90;;;;;;7366984;19;20041;-62
2024/03/11 04:03:38;;;;;;;38.80;30.13;;;7.10;99.90;;;;;;7370106;19;20023;-63
2024/03/11 04:06:07;;;;;;;43.15;30.77;;;7.10;99.90;;;;;;7374922;19;20101;-62
2024/03/11 04:08:33;;;;;;;41.65;29.83;;;7.10;99.90;;;;;;7371571;19;20029;-62
2024/03/11 04:11:02;;;;;;;39.53;30.33;;;7.10;99.90;;;;;;7373808;19;20032;-62
2024/03/11 04:13:28;;;;;;;40.42;30.42;;;7.10;99.90;;;;;;7373564;19;20047;-62
2024/03/11 04:15:57;;;;;;;38.05;29.10;;;7.10;99.90;;;;;;7367856;19;20019;-62
2024/03/11 04:18:24;;;;;;;36.85;28.92;;;7.10;99.90;;;;;;7372722;19;20077;-62
2024/03/11 04:20:55;;;;;;;40.45;29.13;;;7.20;99.90;;;;;;7368647;19;20022;-62
2024/03/11 04:23:28;;;;;;;41.47;30.53;;;7.10;99.90;;;;;;7373806;19;20121;-65
2024/03/11 04:25:54;;;;;;;36.88;28.25;;;7.20;99.90;;;;;;7367689;19;20798;-62
2024/03/11 04:28:21;;;;;;;40.40;30.50;;;7.10;99.90;;;;;;7369910;19;20033;-66
2024/03/11 04:30:48;;;;;;;40.85;29.52;;;7.20;99.90;;;;;;7372738;19;20527;-62
2024/03/11 04:33:17;;;;;;;38.78;29.70;;;7.10;99.90;;;;;;7369284;19;20078;-65
2024/03/11 04:35:43;;;;;;;41.38;29.52;;;7.10;99.90;;;;;;7370558;19;20022;-62
2024/03/11 04:38:12;;;;;;;36.97;28.38;;;7.10;99.90;;;;;;7366094;19;20053;-65
2024/03/11 04:40:47;;;;;;;40.08;29.65;;;7.10;99.90;;;;;;7369620;19;20106;-66
2024/03/11 04:43:13;;;;;;;40.58;30.33;;;7.10;99.90;;;;;;7368874;19;20809;-65
2024/03/11 04:45:40;;;;;;;39.08;28.80;;;7.10;99.90;;;;;;7370324;19;20025;-65
2024/03/11 04:48:13;;;;;;;37.65;28.15;;;7.10;99.90;;;;;;7367055;19;20669;-66
2024/03/11 04:50:40;;;;;;;38.92;28.98;;;7.10;99.90;;;;;;7370992;19;20037;-67
2024/03/11 04:53:07;;;;;;;38.33;28.85;;;7.10;99.90;;;;;;7365988;19;20086;-66
2024/03/11 04:55:36;;;;;;;39.72;29.48;;;7.00;99.90;;;;;;7369794;19;20937;-66
2024/03/11 04:58:03;;;;;;;38.20;27.90;;;7.00;99.90;;;;;;7364875;19;20019;-66
2024/03/11 05:00:30;;;;;;;37.45;28.35;;;7.00;99.90;;;;;;7368318;19;20049;-63
2024/03/11 05:02:58;;;;;;;42.28;29.42;;;7.10;99.90;;;;;;7365327;19;20384;-62
2024/03/11 05:05:31;;;;;;;38.58;28.63;;;7.10;99.90;;;;;;7371171;19;20033;-65
2024/03/11 05:07:58;;;;;;;39.92;30.50;;;7.00;99.90;;;;;;7365944;19;20019;-66
2024/03/11 05:10:24;;;;;;;41.75;28.98;;;7.00;99.90;;;;;;7369363;19;20022;-66
2024/03/11 05:12:50;;;;;;;41.47;29.67;;;7.00;99.90;;;;;;7366570;19;20354;-66
2024/03/11 05:15:20;;;;;;;36.92;29.60;;;7.00;99.90;;;;;;7370603;19;20427;-62
2024/03/11 05:17:46;;;;;;;38.97;30.38;;;7.10;99.90;;;;;;7367075;19;20028;-66
2024/03/11 05:20:14;;;;;;;36.03;28.73;;;7.00;99.90;;;;;;7366227;19;20505;-66
2024/03/11 05:22:45;;;;;;;36.78;28.00;;;7.00;99.90;;;;;;7368085;19;20867;-66
2024/03/11 05:25:14;;;;;;;42.07;29.87;;;7.00;99.90;;;;;;7371430;19;20022;-67
2024/03/11 05:27:41;;;;;;;40.80;29.33;;;7.00;99.90;;;;;;7367175;19;20029;-63
2024/03/11 05:30:08;;;;;;;33.80;27.10;;;6.90;99.90;;;;;;7365368;19;20770;-66
2024/03/11 05:32:35;;;;;;;37.67;29.25;;;7.00;99.90;;;;;;7360799;19;20761;-66
2024/03/11 05:35:01;;;;;;;39.33;28.17;;;6.90;99.90;;;;;;7363864;19;20038;-62
2024/03/11 05:37:28;;;;;;;44.47;29.95;;;6.90;99.90;;;;;;7365112;19;20014;-62
2024/03/11 05:39:59;;;;;;;38.15;29.05;;;6.90;99.90;;;;;;7363558;19;20026;-66
2024/03/11 05:42:25;;;;;;;40.63;29.88;;;6.90;99.90;;;;;;7364702;19;20484;-63
2024/03/11 05:44:52;;;;;;;38.70;29.17;;;6.90;99.90;;;;;;7362607;19;20604;-66
2024/03/11 05:47:18;;;;;;;40.58;29.02;;;6.90;99.90;;;;;;7363340;19;20023;-66
2024/03/11 05:49:44;;;;;;;37.00;27.33;;;6.90;99.90;;;;;;7364600;19;20022;-62
2024/03/11 05:52:11;;;;;;;37.65;28.52;;;6.90;99.90;;;;;;7362105;19;20025;-63
2024/03/11 05:54:50;;;;;;;41.70;31.35;;;6.90;99.90;;;;;;7368965;19;20082;-65
2024/03/11 05:57:26;;;;;;;37.53;28.17;;;6.90;99.90;;;;;;7367382;19;20018;-66
2024/03/11 05:59:53;;;;;;;36.92;27.33;;;6.90;99.90;;;;;;7370396;19;20018;-65
2024/03/11 06:02:20;;;;;;;39.40;29.52;;;6.90;99.90;;;;;;7370315;19;20094;-66
2024/03/11 06:04:47;;;;;;;41.95;30.13;;;6.80;99.90;;;;;;7370772;19;20433;-63
2024/03/11 06:07:19;;;;;;;39.10;28.27;;;6.80;99.90;;;;;;7372168;19;20080;-68
2024/03/11 06:09:46;;;;;;;35.17;28.35;;;6.80;99.90;;;;;;7377176;19;20641;-64
2024/03/11 06:12:15;;;;;;;36.53;27.05;;;6.80;99.90;;;;;;7364270;19;20029;-65
2024/03/11 06:14:41;;;;;;;41.08;30.33;;;6.80;99.90;;;;;;7370166;19;20027;-66
2024/03/11 06:17:10;;;;;;;40.72;29.25;;;6.80;99.90;;;;;;7371431;19;20123;-66
2024/03/11 06:19:39;;;;;;;36.28;27.48;;;6.80;99.90;;;;;;7368822;19;20377;-64
2024/03/11 06:22:07;;;;;;;36.53;29.15;;;6.80;99.90;;;;;;7366547;19;20041;-66
2024/03/11 06:24:33;;;;;;;37.90;27.08;;;6.80;99.90;;;;;;7369987;19;20078;-66
2024/03/11 06:27:00;;;;;;;39.28;27.92;;;6.80;99.90;;;;;;7371554;19;20018;-67
2024/03/11 06:29:26;;;;;;;40.00;27.33;;;6.80;99.90;;;;;;7374770;19;20042;-68
2024/03/11 06:31:53;;;;;;;38.55;28.17;;;6.80;99.90;;;;;;7372933;19;20018;-67
2024/03/11 06:34:21;;;;;;;38.72;28.98;;;6.80;99.90;;;;;;7368434;19;20014;-63
2024/03/11 06:36:48;;;;;;;60.70;45.38;;;6.80;99.90;;;;;;7371189;19;20801;-67
2024/03/11 06:39:15;;;;;;;41.83;30.67;;;6.80;99.90;;;;;;7372918;19;20014;-67
2024/03/11 06:41:41;;;;;;;43.15;30.73;;;6.80;99.90;;;;;;7374167;19;20783;-68
2024/03/11 06:44:08;;;;;;;37.17;28.50;;;6.80;99.90;;;;;;7370667;19;20039;-66
2024/03/11 06:46:37;;;;;;;36.33;27.60;;;6.70;99.90;;;;;;7374898;19;20727;-65
2024/03/11 06:49:05;;;;;;;38.85;30.50;;;6.80;99.90;;;;;;7375571;19;20038;-64
2024/03/11 06:51:31;;;;;;;39.53;30.83;;;6.70;99.90;;;;;;7377951;19;20859;-67
2024/03/11 06:53:59;;;;;;;42.75;30.80;;;6.70;99.90;;;;;;7375252;19;20018;-65
2024/03/11 06:56:30;;;;;;;38.63;28.10;;;6.70;99.90;;;;;;7373456;19;20018;-67
2024/03/11 06:58:58;;;;;;;41.92;30.40;;;6.70;99.90;;;;;;7380861;19;20082;-66
2024/03/11 07:01:28;;;;;;;40.38;27.40;;;6.70;99.90;;;;;;7372688;19;20023;-66
2024/03/11 07:03:55;;;;;;;37.67;26.92;;;6.70;99.90;;;;;;7375859;19;20018;-66
2024/03/11 07:06:22;;;;;;;41.35;32.10;;;6.70;99.90;;;;;;7380280;19;20094;-67
2024/03/11 07:08:51;;;;;;;38.20;27.38;;;6.70;99.90;;;;;;7373223;19;20040;-65
2024/03/11 07:11:17;;;;;;;39.53;28.42;;;6.80;99.90;;;;;;7374540;19;20794;-65
2024/03/11 07:13:44;;;;;;;37.80;28.15;;;6.80;99.90;;;;;;7369074;19;20022;-65
2024/03/11 07:16:12;;;;;;;45.60;33.83;;;6.80;99.90;;;;;;7376229;19;20014;-65
2024/03/11 07:18:39;;;;;;;37.28;27.58;;;6.80;99.90;;;;;;7374518;19;20022;-65
2024/03/11 07:21:06;;;;;;;38.97;28.20;;;6.80;99.90;;;;;;7373524;19;20654;-65
2024/03/11 07:23:33;;;;;;;36.55;27.42;;;6.80;99.90;;;;;;7373280;19;20022;-63
2024/03/11 07:26:01;;;;;;;43.58;29.60;;;6.80;99.90;;;;;;7378389;19;20041;-67
2024/03/11 07:28:34;;;;;;;39.63;30.25;;;6.90;99.90;;;;;;7379872;19;20018;-67
2024/03/11 07:31:01;;;;;;;37.88;27.70;;;6.90;99.90;;;;;;7377739;19;20019;-67
2024/03/11 07:33:27;;;;;;;39.97;28.60;;;6.90;99.90;;;;;;7378789;19;20015;-68
2024/03/11 07:35:53;;;;;;;40.88;27.55;;;6.90;99.90;;;;;;7376283;19;20371;-68
2024/03/11 07:38:23;;;;;;;37.55;26.88;;;6.90;99.90;;;;;;7377540;19;20014;-67
2024/03/11 07:40:51;;;;;;;40.10;30.43;;;7.00;99.90;;;;;;7375782;19;20022;-67
2024/03/11 07:43:17;;;;;;;36.03;27.10;;;7.00;99.90;;;;;;7373165;19;20283;-68
2024/03/11 07:45:43;;;;;;;39.55;28.13;;;7.00;99.90;;;;;;7377681;19;20015;-67
2024/03/11 07:48:11;;;;;;;37.70;27.25;;;7.10;99.90;;;;;;7373461;19;20074;-64
2024/03/11 07:50:37;;;;;;;36.25;26.45;;;7.10;99.90;;;;;;7370437;19;20018;-64
2024/03/11 07:53:06;;;;;;;34.50;26.52;;;7.10;99.90;;;;;;7365925;19;20396;-64
2024/03/11 07:55:36;;;;;;;38.47;27.77;;;7.20;99.90;;;;;;7369846;19;20018;-66
2024/03/11 07:58:03;;;;;;;35.78;27.15;;;7.10;99.90;;;;;;7377556;19;20015;-65
2024/03/11 08:00:31;;;;;;;34.00;26.02;;;7.20;99.90;;;;;;7370758;19;20011;-61
2024/03/11 08:02:58;;;;;;;39.58;28.38;;;7.30;99.90;;;;;;7370365;19;20379;-60
2024/03/11 08:05:25;;;;;;;38.15;26.25;;;7.30;99.90;;;;;;7367494;19;20049;-61
2024/03/11 08:07:52;;;;;;;36.47;26.58;;;7.30;99.90;;;;;;7371217;19;20018;-61
2024/03/11 08:10:19;;;;;;;38.67;28.70;;;7.40;99.90;;;;;;7370217;19;20107;-60
2024/03/11 08:12:51;;;;;;;37.80;27.55;;;7.40;99.90;;;;;;7373810;19;20030;-67
2024/03/11 08:15:17;;;;;;;;;;;7.40;99.90;;;;;;7375508;19;20055;-61
2024/03/11 08:17:46;;;;;;;40.63;27.27;;;7.40;99.90;;;;;;7371724;19;19923;-67
2024/03/11 08:20:16;;;;;;;38.13;29.38;;;7.40;99.90;;;;;;7378856;19;20021;-61
2024/03/11 08:22:45;;;;;;;37.55;27.92;;;7.50;99.90;;;;;;7373874;19;20673;-61
2024/03/11 08:25:22;;;;;;;35.85;28.75;;;7.50;99.90;;;;;;7368816;19;20015;-68
2024/03/11 08:27:53;;;;;;;39.70;27.20;;;7.50;99.90;;;;;;7369613;19;20019;-61
2024/03/11 08:30:24;;;;;;;39.85;27.13;;;7.60;99.90;;;;;;7366010;19;20045;-65
2024/03/11 08:32:50;;;;;;;36.78;28.25;;;7.60;99.90;;;;;;7369458;19;20107;-61
2024/03/11 08:35:21;;;;;;;38.70;27.08;;;7.70;99.90;;;;;;7367040;19;20041;-61
2024/03/11 08:37:49;;;;;;;37.72;28.30;;;7.70;99.90;;;;;;7369668;19;20027;-67
2024/03/11 08:40:17;;;;;;;35.60;27.20;;;7.70;99.90;;;;;;7372390;19;20037;-66
2024/03/11 08:42:48;;;;;;;38.30;27.58;;;7.70;99.90;;;;;;7376695;19;20026;-66
2024/03/11 08:45:23;;;;;;;36.60;26.70;;;7.70;99.90;;;;;;7372851;19;20018;-66
2024/03/11 08:47:51;;;;;;;37.03;28.20;;;7.70;99.90;;;;;;7373571;19;20018;-66
2024/03/11 08:50:17;;;;;;;35.50;26.75;;;7.70;99.90;;;;;;7371003;19;20025;-66
2024/03/11 08:52:45;;;;;;;32.35;25.98;;;7.70;99.90;;;;;;7371893;19;20022;-59
2024/03/11 08:55:13;;;;;;;40.15;27.55;;;7.60;99.90;;;;;;7367003;19;20018;-61
2024/03/11 08:57:40;;;;;;;45.80;30.77;;;7.60;99.90;;;;;;7368786;19;20007;-66
2024/03/11 09:00:12;;;;;;;38.75;27.55;;;7.60;99.90;;;;;;7368255;19;20018;-61
2024/03/11 09:02:39;;;;;;;37.63;28.30;;;7.50;99.90;;;;;;7372244;19;20827;-68
2024/03/11 09:05:17;;;;;;;34.83;26.80;;;7.60;99.90;;;;;;7363001;19;20764;-61
2024/03/11 09:07:46;;;;;;;38.53;27.83;;;7.60;99.90;;;;;;7367739;19;20011;-61
2024/03/11 09:10:14;;;;;;;42.45;28.75;;;7.60;99.90;;;;;;7370452;19;20479;-61
2024/03/11 09:12:42;;;;;;;34.05;26.77;;;7.70;99.90;;;;;;7372163;19;20092;-62
2024/03/11 09:15:15;;;;;;;39.58;28.83;;;7.70;99.90;;;;;;7372074;19;20014;-62
2024/03/11 09:17:42;;;;;;;35.85;27.55;;;7.80;99.90;;;;;;7374405;19;20106;-62
2024/03/11 09:20:15;;;;;;;38.75;27.17;;;7.90;99.90;;;;;;7373547;19;20025;-68
2024/03/11 09:22:46;;;;;;;39.55;27.98;;;8.00;99.90;;;;;;7378537;19;20094;-68
2024/03/11 09:25:17;;;;;;;36.57;28.80;;;8.10;99.90;;;;;;7377276;19;20037;-68
2024/03/11 09:27:50;;;;;;;39.15;28.80;;;8.10;99.90;;;;;;7378197;19;20094;-63
2024/03/11 09:30:17;;;;;;;37.05;26.17;;;8.00;99.90;;;;;;7378574;19;20033;-69
2024/03/11 09:32:52;;;;;;;43.45;29.95;;;8.00;99.90;;;;;;7380294;19;20679;-67
2024/03/11 09:35:19;;;;;;;37.42;27.63;;;8.00;99.90;;;;;;7370806;19;20655;-63
2024/03/11 09:37:46;;;;;;;36.20;26.65;;;8.10;99.90;;;;;;7372396;19;20020;-62
2024/03/11 09:40:16;;;;;;;35.42;27.65;;;8.10;99.90;;;;;;7365847;19;20514;-64
2024/03/11 09:42:47;;;;;;;35.28;26.67;;;8.10;99.90;;;;;;7371498;19;20015;-62
2024/03/11 09:45:18;;;;;;;39.88;29.65;;;8.20;99.90;;;;;;7366121;19;20026;-63
2024/03/11 09:47:57;;;;;;;39.97;28.55;;;8.20;99.90;;;;;;7367396;19;20740;-62
2024/03/11 09:50:26;;;;;;;38.60;26.50;;;8.20;99.90;;;;;;7366866;19;20777;-62
2024/03/11 09:52:58;;;;;;;38.33;26.08;;;8.20;99.90;;;;;;7373313;19;20030;-66
2024/03/11 09:55:31;;;;;;;41.75;29.60;;;8.30;99.90;;;;;;7377842;19;20086;-65
2024/03/11 09:58:10;;;;;;;35.17;25.52;;;8.30;99.90;;;;;;7377290;19;20026;-65
2024/03/11 10:00:50;;;;;;;39.08;30.27;;;8.30;99.90;;;;;;7380083;19;20033;-61
2024/03/11 10:03:20;;;;;;;37.45;26.70;;;8.40;99.90;;;;;;7368857;19;20048;-62
2024/03/11 10:05:54;;;;;;;43.17;28.42;;;8.50;99.90;;;;;;7373459;19;20788;-65
2024/03/11 10:08:25;;;;;;;35.97;26.15;;;8.50;99.90;;;;;;7379256;19;20019;-66
2024/03/11 10:11:28;;;;;;;36.50;28.23;;;8.40;99.90;;;;;;7374203;19;20018;-62
2024/03/11 10:13:56;;;;;;;34.67;26.00;;;8.30;99.90;;;;;;7372080;19;20086;-66
2024/03/11 10:16:26;;;;;;;33.35;25.63;;;8.40;99.90;;;;;;7377593;19;20025;-62
2024/03/11 10:19:11;;;;;;;34.85;26.40;;;8.30;99.90;;;;;;7376140;19;20589;-66
2024/03/11 10:21:42;;;;;;;34.13;26.70;;;8.30;99.90;;;;;;7381551;19;20041;-62
2024/03/11 10:24:09;;;;;;;34.57;26.27;;;8.20;99.90;;;;;;7376125;19;20011;-62
2024/03/11 10:26:42;;;;;;;35.30;23.73;;;8.10;99.90;;;;;;7381929;19;20032;-66
2024/03/11 10:29:11;;;;;;;32.97;25.58;;;8.10;99.90;;;;;;7382572;19;20463;-67
2024/03/11 10:31:40;;;;;;;35.47;26.73;;;8.00;99.90;;;;;;7384798;19;20026;-62
2024/03/11 10:34:20;;;;;;;32.10;25.15;;;8.00;99.90;;;;;;7376143;19;20023;-63
2024/03/11 10:36:47;;;;;;;36.88;28.85;;;8.10;99.90;;;;;;7384000;19;20045;-68
2024/03/11 10:41:51;;;;;;;37.40;26.35;;;8.30;99.90;;;;;;7384810;19;20025;-65
2024/03/11 10:44:23;;;;;;;50.20;36.88;;;8.40;99.90;;;;;;7378137;19;20010;-67
2024/03/11 10:46:55;;;;;;;39.08;27.17;;;8.60;99.90;;;;;;7377110;19;20127;-67
2024/03/11 10:49:25;;;;;;;34.78;28.05;;;8.80;99.90;;;;;;7376309;19;20502;-61
2024/03/11 10:51:57;;;;;;;34.85;27.20;;;9.00;99.90;;;;;;7375972;19;20406;-61
2024/03/11 10:54:33;;;;;;;36.22;28.55;;;9.20;99.90;;;;;;7375464;19;20022;-61
2024/03/11 10:57:01;;;;;;;33.90;26.10;;;9.30;99.90;;;;;;7373522;19;20022;-66
2024/03/11 10:59:35;;;;;;;44.80;31.83;;;9.30;99.90;;;;;;7380145;19;20035;-61
2024/03/11 11:02:06;;;;;;;31.27;24.70;;;9.30;99.90;;;;;;7373981;19;20040;-62
2024/03/11 11:04:33;;;;;;;38.47;29.00;;;9.40;99.90;;;;;;7382852;19;20344;-67
2024/03/11 11:07:02;;;;;;;40.08;30.45;;;9.40;99.90;;;;;;7385399;19;20086;-66
2024/03/11 11:09:31;;;;;;;31.20;24.63;;;9.50;99.90;;;;;;7383557;19;21486;-67
2024/03/11 11:11:57;;;;;;;30.10;23.58;;;9.40;99.90;;;;;;7376119;19;20716;-62
2024/03/11 11:14:25;;;;;;;32.10;23.52;;;9.50;99.90;;;;;;7379218;19;20462;-66
2024/03/11 11:16:51;;;;;;;31.35;23.90;;;9.50;99.90;;;;;;7382679;19;20020;-66
2024/03/11 11:19:24;;;;;;;32.40;25.13;;;9.50;99.90;;;;;;7378074;19;20663;-62
2024/03/11 11:21:51;;;;;;;31.48;24.52;;;9.50;99.90;;;;;;7376929;19;20101;-69
2024/03/11 11:24:32;;;;;;;33.63;23.17;;;9.50;99.90;;;;;;7382327;19;20019;-66
2024/03/11 11:27:01;;;;;;;34.10;24.48;;;9.40;99.90;;;;;;7379161;19;20018;-66
2024/03/11 11:29:29;;;;;;;29.65;24.55;;;9.50;99.90;;;;;;7385171;19;20019;-66
2024/03/11 11:32:11;;;;;;;33.80;25.98;;;9.50;99.90;;;;;;7378218;19;20022;-61
2024/03/11 11:34:46;;;;;;;32.15;23.67;;;9.50;99.90;;;;;;7376086;19;20021;-61
2024/03/11 11:37:18;;;;;;;34.58;26.17;;;9.50;99.90;;;;;;7374949;19;20025;-61
2024/03/11 11:39:45;;;;;;;31.65;24.85;;;9.70;99.90;;;;;;7375869;19;20050;-61
2024/03/11 11:42:49;;;;;;;33.33;25.77;;;9.80;99.90;;;;;;7373429;19;20922;-61
2024/03/11 11:45:56;;;;;;;47.80;36.90;;;9.90;99.90;;;;;;7368797;19;20022;-61
2024/03/11 11:48:28;;;;;;;30.77;24.65;;;9.80;99.90;;;;;;7381345;19;20018;-61
2024/03/11 11:50:58;;;;;;;32.85;26.40;;;9.80;99.90;;;;;;7372390;19;20018;-63
2024/03/11 11:53:27;;;;;;;33.72;26.40;;;9.90;99.90;;;;;;7375962;19;20102;-61
2024/03/11 11:55:55;;;;;;;34.33;26.27;;;10.00;99.90;;;;;;7369681;19;20022;-61
2024/03/11 11:58:21;;;;;;;29.17;23.63;;;9.90;99.90;;;;;;7370856;19;20022;-62
2024/03/11 12:01:01;;;;;;;31.85;25.13;;;9.90;99.90;;;;;;7382372;19;20018;-66
2024/03/11 12:03:31;;;;;;;27.10;23.73;;;9.80;99.90;;;;;;7385161;19;20481;-66
2024/03/11 12:06:17;;;;;;;31.92;25.05;;;9.80;99.90;;;;;;7384722;19;20034;-62
2024/03/11 12:08:53;;;;;;;33.95;28.05;;;9.60;99.90;;;;;;7377228;19;20041;-61
2024/03/11 12:11:19;;;;;;;39.80;27.30;;;9.60;99.90;;;;;;7375192;19;20883;-61
2024/03/11 12:13:47;;;;;;;34.78;26.73;;;9.50;99.90;;;;;;7376186;19;20024;-60
2024/03/11 12:16:20;;;;;;;35.67;27.85;;;9.50;99.90;;;;;;7370193;19;20605;-62
2024/03/11 12:19:00;;;;;;;;;;;9.50;99.90;;;;;;7376579;19;20481;-62
2024/03/11 12:21:28;;;;;;;31.83;26.70;;;9.50;99.90;;;;;;7379147;19;20453;-62
2024/03/11 12:23:56;;;;;;;37.55;28.17;;;9.50;99.90;;;;;;7372274;19;20018;-62
2024/03/11 12:26:26;;;;;;;36.15;28.55;;;9.40;99.90;;;;;;7373291;19;20117;-62
2024/03/11 12:29:13;;;;;;;34.00;26.95;;;9.40;99.90;;;;;;7381887;19;20018;-69
2024/03/11 12:31:39;;;;;;;34.40;26.90;;;9.40;99.90;;;;;;7375996;19;20074;-67
2024/03/11 12:34:13;;;;;;;32.17;25.33;;;9.30;99.90;;;;;;7372665;19;20023;-61
2024/03/11 12:36:48;;;;;;;34.58;27.63;;;9.30;99.90;;;;;;7374696;19;20870;-62
2024/03/11 12:39:21;;;;;;;33.28;26.85;;;9.20;99.90;;;;;;7375931;19;20022;-64
2024/03/11 12:41:49;;;;;;;30.98;24.98;;;9.20;99.90;;;;;;7378277;19;20023;-68
2024/03/11 12:44:20;;;;;;;34.80;27.75;;;9.10;99.90;;;;;;7384639;19;20010;-68
2024/03/11 12:46:50;;;;;;;33.92;27.17;;;9.10;99.90;;;;;;7376751;19;20670;-67
2024/03/11 12:49:22;;;;;;;33.58;26.42;;;9.10;99.90;;;;;;7379472;19;20047;-62
2024/03/11 12:51:59;;;;;;;31.55;25.00;;;9.10;99.90;;;;;;7372155;19;20024;-62